sensor_id;sensor_type;location;lat;lon;timestamp;P1;durP1;ratioP1;P2;durP2;ratioP2
74108;SDS011;62466;47.566;7.786;2023-04-29T00:02:08;8.85;;;5.35;;
74108;SDS011;62466;47.566;7.786;2023-04-29T00:04:34;8.32;;;5.20;;
74108;SDS011;62466;47.566;7.786;2023-04-29T00:06:59;10.30;;;5.88;;
74108;SDS011;62466;47.566;7.786;2023-04-29T00:09:25;12.23;;;7.90;;
74108;SDS011;62466;47.566;7.786;2023-04-29T00:11:50;15.02;;;7.00;;
74108;SDS011;62466;47.566;7.786;2023-04-29T00:14:16;12.35;;;7.15;;
74108;SDS011;62466;47.566;7.786;2023-04-29T00:16:41;15.57;;;6.40;;
74108;SDS011;62466;47.566;7.786;2023-04-29T00:19:07;11.48;;;5.72;;
74108;SDS011;62466;47.566;7.786;2023-04-29T00:21:32;15.85;;;7.40;;
74108;SDS011;62466;47.566;7.786;2023-04-29T00:23:58;13.73;;;6.10;;
74108;SDS011;62466;47.566;7.786;2023-04-29T00:26:24;20.80;;;7.38;;
74108;SDS011;62466;47.566;7.786;2023-04-29T00:28:50;13.80;;;6.05;;
74108;SDS011;62466;47.566;7.786;2023-04-29T00:31:15;21.85;;;7.45;;
74108;SDS011;62466;47.566;7.786;2023-04-29T00:33:41;21.65;;;6.65;;
74108;SDS011;62466;47.566;7.786;2023-04-29T00:36:06;19.13;;;6.68;;
74108;SDS011;62466;47.566;7.786;2023-04-29T00:38:33;16.00;;;6.53;;
74108;SDS011;62466;47.566;7.786;2023-04-29T00:40:59;23.55;;;8.10;;
74108;SDS011;62466;47.566;7.786;2023-04-29T00:47:12;15.65;;;7.30;;
74108;SDS011;62466;47.566;7.786;2023-04-29T00:49:38;35.20;;;9.27;;
74108;SDS011;62466;47.566;7.786;2023-04-29T00:52:04;17.95;;;8.40;;
74108;SDS011;62466;47.566;7.786;2023-04-29T00:54:32;21.67;;;7.97;;
74108;SDS011;62466;47.566;7.786;2023-04-29T00:57:00;18.45;;;7.63;;
74108;SDS011;62466;47.566;7.786;2023-04-29T00:59:27;22.23;;;9.27;;
74108;SDS011;62466;47.566;7.786;2023-04-29T01:02:05;18.98;;;7.82;;
74108;SDS011;62466;47.566;7.786;2023-04-29T01:04:30;21.48;;;8.13;;
74108;SDS011;62466;47.566;7.786;2023-04-29T01:07:10;18.35;;;7.45;;
74108;SDS011;62466;47.566;7.786;2023-04-29T01:14:48;18.70;;;8.18;;
74108;SDS011;62466;47.566;7.786;2023-04-29T01:17:22;19.02;;;7.72;;
74108;SDS011;62466;47.566;7.786;2023-04-29T01:19:53;35.95;;;9.40;;
74108;SDS011;62466;47.566;7.786;2023-04-29T01:22:20;19.83;;;9.00;;
74108;SDS011;62466;47.566;7.786;2023-04-29T01:24:46;18.45;;;7.10;;
74108;SDS011;62466;47.566;7.786;2023-04-29T01:38:33;23.50;;;8.85;;
74108;SDS011;62466;47.566;7.786;2023-04-29T01:41:15;22.40;;;8.27;;
74108;SDS011;62466;47.566;7.786;2023-04-29T01:43:49;21.30;;;7.53;;
74108;SDS011;62466;47.566;7.786;2023-04-29T01:46:21;15.45;;;6.50;;
74108;SDS011;62466;47.566;7.786;2023-04-29T01:48:51;24.58;;;7.72;;
74108;SDS011;62466;47.566;7.786;2023-04-29T01:51:18;16.85;;;7.47;;
74108;SDS011;62466;47.566;7.786;2023-04-29T01:53:44;21.35;;;8.23;;
74108;SDS011;62466;47.566;7.786;2023-04-29T01:56:09;22.45;;;8.60;;
74108;SDS011;62466;47.566;7.786;2023-04-29T01:59:10;17.55;;;7.40;;
74108;SDS011;62466;47.566;7.786;2023-04-29T02:02:03;24.08;;;7.95;;
74108;SDS011;62466;47.566;7.786;2023-04-29T02:04:30;26.02;;;8.52;;
74108;SDS011;62466;47.566;7.786;2023-04-29T02:06:58;20.75;;;7.75;;
74108;SDS011;62466;47.566;7.786;2023-04-29T02:09:24;23.90;;;9.57;;
74108;SDS011;62466;47.566;7.786;2023-04-29T02:11:54;30.02;;;9.02;;
74108;SDS011;62466;47.566;7.786;2023-04-29T02:14:19;29.67;;;9.60;;
74108;SDS011;62466;47.566;7.786;2023-04-29T02:16:45;25.45;;;7.95;;
74108;SDS011;62466;47.566;7.786;2023-04-29T02:19:12;23.60;;;8.90;;
74108;SDS011;62466;47.566;7.786;2023-04-29T02:21:38;23.13;;;8.38;;
74108;SDS011;62466;47.566;7.786;2023-04-29T02:24:06;29.60;;;8.65;;
74108;SDS011;62466;47.566;7.786;2023-04-29T02:26:32;22.02;;;8.38;;
74108;SDS011;62466;47.566;7.786;2023-04-29T02:28:58;21.95;;;8.07;;
74108;SDS011;62466;47.566;7.786;2023-04-29T02:31:25;28.80;;;8.90;;
74108;SDS011;62466;47.566;7.786;2023-04-29T02:33:52;19.73;;;7.38;;
74108;SDS011;62466;47.566;7.786;2023-04-29T02:36:18;20.02;;;8.00;;
74108;SDS011;62466;47.566;7.786;2023-04-29T02:38:44;25.98;;;8.20;;
74108;SDS011;62466;47.566;7.786;2023-04-29T02:41:09;24.55;;;8.00;;
74108;SDS011;62466;47.566;7.786;2023-04-29T02:43:42;17.83;;;6.88;;
74108;SDS011;62466;47.566;7.786;2023-04-29T02:46:09;26.23;;;7.72;;
74108;SDS011;62466;47.566;7.786;2023-04-29T02:48:35;35.90;;;9.30;;
74108;SDS011;62466;47.566;7.786;2023-04-29T02:51:00;25.05;;;7.80;;
74108;SDS011;62466;47.566;7.786;2023-04-29T02:53:26;24.23;;;8.07;;
74108;SDS011;62466;47.566;7.786;2023-04-29T02:55:52;26.05;;;8.95;;
74108;SDS011;62466;47.566;7.786;2023-04-29T02:58:17;26.92;;;9.18;;
74108;SDS011;62466;47.566;7.786;2023-04-29T03:00:43;36.10;;;10.98;;
74108;SDS011;62466;47.566;7.786;2023-04-29T03:03:08;25.33;;;10.63;;
74108;SDS011;62466;47.566;7.786;2023-04-29T03:05:34;40.72;;;11.95;;
74108;SDS011;62466;47.566;7.786;2023-04-29T03:08:01;29.83;;;10.95;;
74108;SDS011;62466;47.566;7.786;2023-04-29T03:10:30;33.25;;;11.48;;
74108;SDS011;62466;47.566;7.786;2023-04-29T03:12:56;32.15;;;10.27;;
74108;SDS011;62466;47.566;7.786;2023-04-29T03:15:21;22.23;;;8.80;;
74108;SDS011;62466;47.566;7.786;2023-04-29T03:17:47;18.77;;;9.13;;
74108;SDS011;62466;47.566;7.786;2023-04-29T03:20:13;16.77;;;9.05;;
74108;SDS011;62466;47.566;7.786;2023-04-29T03:22:39;16.33;;;8.32;;
74108;SDS011;62466;47.566;7.786;2023-04-29T03:25:04;13.70;;;7.20;;
74108;SDS011;62466;47.566;7.786;2023-04-29T03:27:31;13.07;;;7.75;;
74108;SDS011;62466;47.566;7.786;2023-04-29T03:29:57;9.88;;;6.97;;
74108;SDS011;62466;47.566;7.786;2023-04-29T03:32:23;10.75;;;6.38;;
74108;SDS011;62466;47.566;7.786;2023-04-29T03:34:49;12.65;;;6.47;;
74108;SDS011;62466;47.566;7.786;2023-04-29T03:37:35;11.75;;;6.28;;
74108;SDS011;62466;47.566;7.786;2023-04-29T03:40:16;10.45;;;5.90;;
74108;SDS011;62466;47.566;7.786;2023-04-29T03:42:42;10.65;;;5.93;;
74108;SDS011;62466;47.566;7.786;2023-04-29T03:45:10;9.95;;;6.13;;
74108;SDS011;62466;47.566;7.786;2023-04-29T03:47:39;9.07;;;6.18;;
74108;SDS011;62466;47.566;7.786;2023-04-29T03:50:05;10.32;;;6.30;;
74108;SDS011;62466;47.566;7.786;2023-04-29T03:52:32;7.60;;;6.03;;
74108;SDS011;62466;47.566;7.786;2023-04-29T03:55:03;11.30;;;6.45;;
74108;SDS011;62466;47.566;7.786;2023-04-29T03:57:30;12.63;;;6.38;;
74108;SDS011;62466;47.566;7.786;2023-04-29T03:59:56;9.45;;;6.05;;
74108;SDS011;62466;47.566;7.786;2023-04-29T04:02:22;10.55;;;5.93;;
74108;SDS011;62466;47.566;7.786;2023-04-29T04:04:48;9.32;;;5.55;;
74108;SDS011;62466;47.566;7.786;2023-04-29T04:07:13;8.13;;;5.88;;
74108;SDS011;62466;47.566;7.786;2023-04-29T04:09:57;8.32;;;5.20;;
74108;SDS011;62466;47.566;7.786;2023-04-29T04:12:23;9.23;;;4.82;;
74108;SDS011;62466;47.566;7.786;2023-04-29T04:14:49;7.03;;;4.80;;
74108;SDS011;62466;47.566;7.786;2023-04-29T04:17:15;8.82;;;5.25;;
74108;SDS011;62466;47.566;7.786;2023-04-29T04:19:41;7.60;;;4.82;;
74108;SDS011;62466;47.566;7.786;2023-04-29T04:22:06;7.18;;;4.38;;
74108;SDS011;62466;47.566;7.786;2023-04-29T04:24:34;7.55;;;4.85;;
74108;SDS011;62466;47.566;7.786;2023-04-29T04:27:00;8.00;;;4.72;;
74108;SDS011;62466;47.566;7.786;2023-04-29T04:29:31;8.45;;;4.63;;
74108;SDS011;62466;47.566;7.786;2023-04-29T04:32:11;8.02;;;4.72;;
74108;SDS011;62466;47.566;7.786;2023-04-29T04:34:37;7.45;;;4.63;;
74108;SDS011;62466;47.566;7.786;2023-04-29T04:37:04;7.80;;;4.90;;
74108;SDS011;62466;47.566;7.786;2023-04-29T04:39:31;8.25;;;4.97;;
74108;SDS011;62466;47.566;7.786;2023-04-29T04:41:57;9.32;;;5.70;;
74108;SDS011;62466;47.566;7.786;2023-04-29T04:44:23;7.25;;;6.18;;
74108;SDS011;62466;47.566;7.786;2023-04-29T04:46:56;9.75;;;5.93;;
74108;SDS011;62466;47.566;7.786;2023-04-29T04:49:40;8.52;;;5.28;;
74108;SDS011;62466;47.566;7.786;2023-04-29T04:52:06;11.82;;;6.10;;
74108;SDS011;62466;47.566;7.786;2023-04-29T04:54:31;11.48;;;6.40;;
74108;SDS011;62466;47.566;7.786;2023-04-29T04:57:07;9.40;;;5.57;;
74108;SDS011;62466;47.566;7.786;2023-04-29T04:59:33;9.23;;;5.72;;
74108;SDS011;62466;47.566;7.786;2023-04-29T05:01:58;10.98;;;5.40;;
74108;SDS011;62466;47.566;7.786;2023-04-29T05:04:24;9.77;;;5.07;;
74108;SDS011;62466;47.566;7.786;2023-04-29T05:06:49;9.02;;;5.57;;
74108;SDS011;62466;47.566;7.786;2023-04-29T05:09:17;9.82;;;6.00;;
74108;SDS011;62466;47.566;7.786;2023-04-29T05:11:43;15.55;;;7.15;;
74108;SDS011;62466;47.566;7.786;2023-04-29T05:14:14;10.70;;;5.57;;
74108;SDS011;62466;47.566;7.786;2023-04-29T05:16:40;7.50;;;5.07;;
74108;SDS011;62466;47.566;7.786;2023-04-29T05:19:08;8.50;;;4.93;;
74108;SDS011;62466;47.566;7.786;2023-04-29T05:21:36;9.55;;;5.60;;
74108;SDS011;62466;47.566;7.786;2023-04-29T05:24:02;9.88;;;4.85;;
74108;SDS011;62466;47.566;7.786;2023-04-29T05:26:28;13.35;;;6.18;;
74108;SDS011;62466;47.566;7.786;2023-04-29T05:28:57;10.68;;;6.13;;
74108;SDS011;62466;47.566;7.786;2023-04-29T05:31:24;18.58;;;7.40;;
74108;SDS011;62466;47.566;7.786;2023-04-29T05:33:50;13.85;;;5.97;;
74108;SDS011;62466;47.566;7.786;2023-04-29T05:36:16;12.77;;;7.47;;
74108;SDS011;62466;47.566;7.786;2023-04-29T05:38:41;15.57;;;8.10;;
74108;SDS011;62466;47.566;7.786;2023-04-29T05:41:09;16.77;;;8.60;;
74108;SDS011;62466;47.566;7.786;2023-04-29T05:46:06;16.58;;;8.82;;
74108;SDS011;62466;47.566;7.786;2023-04-29T05:48:32;18.45;;;9.18;;
74108;SDS011;62466;47.566;7.786;2023-04-29T05:50:57;14.55;;;8.43;;
74108;SDS011;62466;47.566;7.786;2023-04-29T05:53:23;15.57;;;7.93;;
74108;SDS011;62466;47.566;7.786;2023-04-29T05:55:49;11.57;;;7.82;;
74108;SDS011;62466;47.566;7.786;2023-04-29T05:58:15;13.70;;;7.45;;
74108;SDS011;62466;47.566;7.786;2023-04-29T06:00:41;15.05;;;7.50;;
74108;SDS011;62466;47.566;7.786;2023-04-29T06:03:14;12.35;;;7.63;;
74108;SDS011;62466;47.566;7.786;2023-04-29T06:05:39;20.85;;;7.60;;
74108;SDS011;62466;47.566;7.786;2023-04-29T06:08:15;13.55;;;7.25;;
74108;SDS011;62466;47.566;7.786;2023-04-29T06:10:48;12.57;;;7.35;;
74108;SDS011;62466;47.566;7.786;2023-04-29T06:13:16;15.60;;;8.57;;
74108;SDS011;62466;47.566;7.786;2023-04-29T06:15:41;14.43;;;8.05;;
74108;SDS011;62466;47.566;7.786;2023-04-29T06:18:07;16.05;;;9.02;;
74108;SDS011;62466;47.566;7.786;2023-04-29T06:20:32;12.43;;;7.65;;
74108;SDS011;62466;47.566;7.786;2023-04-29T06:22:58;12.27;;;7.20;;
74108;SDS011;62466;47.566;7.786;2023-04-29T06:25:23;12.48;;;7.40;;
74108;SDS011;62466;47.566;7.786;2023-04-29T06:27:50;11.68;;;6.20;;
74108;SDS011;62466;47.566;7.786;2023-04-29T06:30:18;7.68;;;5.72;;
74108;SDS011;62466;47.566;7.786;2023-04-29T06:32:43;14.63;;;8.43;;
74108;SDS011;62466;47.566;7.786;2023-04-29T06:35:09;17.88;;;10.52;;
74108;SDS011;62466;47.566;7.786;2023-04-29T06:38:04;30.40;;;15.85;;
74108;SDS011;62466;47.566;7.786;2023-04-29T06:40:50;28.02;;;17.80;;
74108;SDS011;62466;47.566;7.786;2023-04-29T06:43:34;15.25;;;11.15;;
74108;SDS011;62466;47.566;7.786;2023-04-29T06:46:14;18.00;;;10.50;;
74108;SDS011;62466;47.566;7.786;2023-04-29T06:48:54;8.18;;;5.72;;
74108;SDS011;62466;47.566;7.786;2023-04-29T06:51:20;6.82;;;6.13;;
74108;SDS011;62466;47.566;7.786;2023-04-29T06:53:46;5.50;;;4.95;;
74108;SDS011;62466;47.566;7.786;2023-04-29T06:56:12;5.40;;;4.78;;
74108;SDS011;62466;47.566;7.786;2023-04-29T06:58:38;9.50;;;5.75;;
74108;SDS011;62466;47.566;7.786;2023-04-29T07:01:06;7.65;;;5.07;;
74108;SDS011;62466;47.566;7.786;2023-04-29T07:03:32;7.57;;;5.55;;
74108;SDS011;62466;47.566;7.786;2023-04-29T07:05:58;7.47;;;5.30;;
74108;SDS011;62466;47.566;7.786;2023-04-29T07:08:23;6.13;;;5.28;;
74108;SDS011;62466;47.566;7.786;2023-04-29T07:10:54;8.23;;;5.22;;
74108;SDS011;62466;47.566;7.786;2023-04-29T07:13:22;5.60;;;4.80;;
74108;SDS011;62466;47.566;7.786;2023-04-29T07:15:49;5.47;;;4.72;;
74108;SDS011;62466;47.566;7.786;2023-04-29T07:18:14;6.20;;;4.72;;
74108;SDS011;62466;47.566;7.786;2023-04-29T07:20:40;6.28;;;4.63;;
74108;SDS011;62466;47.566;7.786;2023-04-29T07:23:06;5.40;;;4.22;;
74108;SDS011;62466;47.566;7.786;2023-04-29T07:25:32;6.65;;;4.38;;
74108;SDS011;62466;47.566;7.786;2023-04-29T07:27:58;5.60;;;4.20;;
74108;SDS011;62466;47.566;7.786;2023-04-29T07:30:24;5.63;;;4.53;;
74108;SDS011;62466;47.566;7.786;2023-04-29T07:32:50;4.93;;;3.72;;
74108;SDS011;62466;47.566;7.786;2023-04-29T07:35:16;5.97;;;3.92;;
74108;SDS011;62466;47.566;7.786;2023-04-29T07:37:42;5.20;;;4.18;;
74108;SDS011;62466;47.566;7.786;2023-04-29T07:40:08;4.75;;;4.10;;
74108;SDS011;62466;47.566;7.786;2023-04-29T07:42:36;5.80;;;3.80;;
74108;SDS011;62466;47.566;7.786;2023-04-29T07:45:03;5.88;;;3.90;;
74108;SDS011;62466;47.566;7.786;2023-04-29T07:47:29;5.93;;;3.25;;
74108;SDS011;62466;47.566;7.786;2023-04-29T07:49:56;4.57;;;3.88;;
74108;SDS011;62466;47.566;7.786;2023-04-29T07:52:22;6.00;;;4.32;;
74108;SDS011;62466;47.566;7.786;2023-04-29T07:54:48;5.38;;;3.47;;
74108;SDS011;62466;47.566;7.786;2023-04-29T07:57:14;5.72;;;4.10;;
74108;SDS011;62466;47.566;7.786;2023-04-29T07:59:39;5.05;;;4.22;;
74108;SDS011;62466;47.566;7.786;2023-04-29T08:02:05;3.70;;;3.40;;
74108;SDS011;62466;47.566;7.786;2023-04-29T08:04:31;4.53;;;3.50;;
74108;SDS011;62466;47.566;7.786;2023-04-29T08:07:06;4.82;;;3.80;;
74108;SDS011;62466;47.566;7.786;2023-04-29T08:09:34;4.10;;;3.67;;
74108;SDS011;62466;47.566;7.786;2023-04-29T08:12:01;2.67;;;2.47;;
74108;SDS011;62466;47.566;7.786;2023-04-29T08:14:27;2.88;;;2.58;;
74108;SDS011;62466;47.566;7.786;2023-04-29T08:16:53;5.70;;;3.08;;
74108;SDS011;62466;47.566;7.786;2023-04-29T08:19:19;5.10;;;3.40;;
74108;SDS011;62466;47.566;7.786;2023-04-29T08:21:45;5.75;;;4.50;;
74108;SDS011;62466;47.566;7.786;2023-04-29T08:24:11;6.00;;;3.90;;
74108;SDS011;62466;47.566;7.786;2023-04-29T08:26:41;5.03;;;3.20;;
74108;SDS011;62466;47.566;7.786;2023-04-29T08:29:06;4.28;;;3.40;;
74108;SDS011;62466;47.566;7.786;2023-04-29T08:31:32;3.75;;;2.58;;
74108;SDS011;62466;47.566;7.786;2023-04-29T08:33:57;3.13;;;1.70;;
74108;SDS011;62466;47.566;7.786;2023-04-29T08:36:23;2.05;;;1.70;;
74108;SDS011;62466;47.566;7.786;2023-04-29T08:38:49;2.47;;;1.88;;
74108;SDS011;62466;47.566;7.786;2023-04-29T08:41:16;3.25;;;1.67;;
74108;SDS011;62466;47.566;7.786;2023-04-29T08:43:42;4.35;;;1.70;;
74108;SDS011;62466;47.566;7.786;2023-04-29T08:46:08;4.28;;;1.73;;
74108;SDS011;62466;47.566;7.786;2023-04-29T08:48:35;3.47;;;1.63;;
74108;SDS011;62466;47.566;7.786;2023-04-29T08:51:01;3.85;;;1.42;;
74108;SDS011;62466;47.566;7.786;2023-04-29T08:53:27;1.50;;;1.40;;
74108;SDS011;62466;47.566;7.786;2023-04-29T08:55:56;1.50;;;1.40;;
74108;SDS011;62466;47.566;7.786;2023-04-29T08:58:23;2.13;;;1.80;;
74108;SDS011;62466;47.566;7.786;2023-04-29T09:00:50;2.67;;;1.60;;
74108;SDS011;62466;47.566;7.786;2023-04-29T09:05:55;6.47;;;2.58;;
74108;SDS011;62466;47.566;7.786;2023-04-29T09:08:22;4.18;;;1.85;;
74108;SDS011;62466;47.566;7.786;2023-04-29T09:10:51;2.95;;;1.83;;
74108;SDS011;62466;47.566;7.786;2023-04-29T09:13:27;4.13;;;2.10;;
74108;SDS011;62466;47.566;7.786;2023-04-29T09:15:56;2.00;;;1.80;;
74108;SDS011;62466;47.566;7.786;2023-04-29T09:18:41;3.20;;;1.85;;
74108;SDS011;62466;47.566;7.786;2023-04-29T09:21:15;2.42;;;1.77;;
74108;SDS011;62466;47.566;7.786;2023-04-29T09:23:42;3.60;;;1.98;;
74108;SDS011;62466;47.566;7.786;2023-04-29T09:26:08;2.97;;;2.05;;
74108;SDS011;62466;47.566;7.786;2023-04-29T09:28:33;2.05;;;1.85;;
74108;SDS011;62466;47.566;7.786;2023-04-29T09:31:00;3.40;;;1.80;;
74108;SDS011;62466;47.566;7.786;2023-04-29T09:33:30;4.60;;;1.80;;
74108;SDS011;62466;47.566;7.786;2023-04-29T09:35:59;2.75;;;1.75;;
74108;SDS011;62466;47.566;7.786;2023-04-29T09:38:25;2.10;;;1.90;;
74108;SDS011;62466;47.566;7.786;2023-04-29T09:40:51;3.42;;;1.85;;
74108;SDS011;62466;47.566;7.786;2023-04-29T09:43:17;3.25;;;2.05;;
74108;SDS011;62466;47.566;7.786;2023-04-29T09:45:45;1.63;;;1.45;;
74108;SDS011;62466;47.566;7.786;2023-04-29T09:48:11;2.80;;;2.53;;
74108;SDS011;62466;47.566;7.786;2023-04-29T09:50:41;1.70;;;1.60;;
74108;SDS011;62466;47.566;7.786;2023-04-29T09:53:11;3.00;;;1.65;;
74108;SDS011;62466;47.566;7.786;2023-04-29T09:58:29;2.95;;;2.13;;
74108;SDS011;62466;47.566;7.786;2023-04-29T10:01:04;2.10;;;1.92;;
74108;SDS011;62466;47.566;7.786;2023-04-29T10:03:34;6.22;;;2.00;;
74108;SDS011;62466;47.566;7.786;2023-04-29T10:06:01;2.40;;;2.20;;
74108;SDS011;62466;47.566;7.786;2023-04-29T10:08:27;2.45;;;1.95;;
74108;SDS011;62466;47.566;7.786;2023-04-29T10:10:53;2.40;;;1.95;;
74108;SDS011;62466;47.566;7.786;2023-04-29T10:13:25;3.38;;;1.88;;
74108;SDS011;62466;47.566;7.786;2023-04-29T10:18:55;3.42;;;2.00;;
74108;SDS011;62466;47.566;7.786;2023-04-29T10:21:28;2.30;;;1.70;;
74108;SDS011;62466;47.566;7.786;2023-04-29T10:23:55;3.15;;;1.70;;
74108;SDS011;62466;47.566;7.786;2023-04-29T10:26:22;2.75;;;1.40;;
74108;SDS011;62466;47.566;7.786;2023-04-29T10:28:51;1.60;;;1.50;;
74108;SDS011;62466;47.566;7.786;2023-04-29T10:31:26;3.03;;;1.50;;
74108;SDS011;62466;47.566;7.786;2023-04-29T10:33:55;1.35;;;1.23;;
74108;SDS011;62466;47.566;7.786;2023-04-29T10:36:24;3.50;;;1.35;;
74108;SDS011;62466;47.566;7.786;2023-04-29T10:38:52;2.95;;;1.50;;
74108;SDS011;62466;47.566;7.786;2023-04-29T10:41:27;3.20;;;1.40;;
74108;SDS011;62466;47.566;7.786;2023-04-29T10:43:54;3.47;;;1.30;;
74108;SDS011;62466;47.566;7.786;2023-04-29T10:48:54;3.08;;;1.45;;
74108;SDS011;62466;47.566;7.786;2023-04-29T10:51:27;1.52;;;1.40;;
74108;SDS011;62466;47.566;7.786;2023-04-29T10:54:15;1.52;;;1.00;;
74108;SDS011;62466;47.566;7.786;2023-04-29T10:56:42;1.40;;;1.10;;
74108;SDS011;62466;47.566;7.786;2023-04-29T10:59:15;2.67;;;1.40;;
74108;SDS011;62466;47.566;7.786;2023-04-29T11:01:53;2.25;;;1.33;;
74108;SDS011;62466;47.566;7.786;2023-04-29T11:04:20;1.85;;;1.10;;
74108;SDS011;62466;47.566;7.786;2023-04-29T11:06:47;1.10;;;1.00;;
74108;SDS011;62466;47.566;7.786;2023-04-29T11:11:55;3.13;;;1.20;;
74108;SDS011;62466;47.566;7.786;2023-04-29T11:14:23;1.98;;;1.05;;
74108;SDS011;62466;47.566;7.786;2023-04-29T11:16:51;2.00;;;1.10;;
74108;SDS011;62466;47.566;7.786;2023-04-29T11:19:18;2.55;;;1.20;;
74108;SDS011;62466;47.566;7.786;2023-04-29T11:21:44;0.95;;;0.93;;
74108;SDS011;62466;47.566;7.786;2023-04-29T11:24:11;1.10;;;1.05;;
74108;SDS011;62466;47.566;7.786;2023-04-29T11:26:40;1.23;;;1.10;;
74108;SDS011;62466;47.566;7.786;2023-04-29T11:29:06;2.33;;;1.13;;
74108;SDS011;62466;47.566;7.786;2023-04-29T11:31:37;2.17;;;1.25;;
74108;SDS011;62466;47.566;7.786;2023-04-29T11:34:03;1.35;;;1.10;;
74108;SDS011;62466;47.566;7.786;2023-04-29T11:36:31;3.50;;;1.20;;
74108;SDS011;62466;47.566;7.786;2023-04-29T11:38:58;2.25;;;1.20;;
74108;SDS011;62466;47.566;7.786;2023-04-29T11:41:25;1.90;;;1.38;;
74108;SDS011;62466;47.566;7.786;2023-04-29T11:43:54;2.17;;;1.10;;
74108;SDS011;62466;47.566;7.786;2023-04-29T11:46:24;2.17;;;1.20;;
74108;SDS011;62466;47.566;7.786;2023-04-29T11:48:53;2.53;;;1.05;;
74108;SDS011;62466;47.566;7.786;2023-04-29T11:51:18;1.30;;;1.20;;
74108;SDS011;62466;47.566;7.786;2023-04-29T11:53:45;1.25;;;1.15;;
74108;SDS011;62466;47.566;7.786;2023-04-29T11:56:10;1.10;;;1.00;;
74108;SDS011;62466;47.566;7.786;2023-04-29T11:58:37;3.17;;;1.17;;
74108;SDS011;62466;47.566;7.786;2023-04-29T12:01:05;1.50;;;1.38;;
74108;SDS011;62466;47.566;7.786;2023-04-29T12:03:31;3.88;;;1.23;;
74108;SDS011;62466;47.566;7.786;2023-04-29T12:05:57;1.60;;;1.10;;
74108;SDS011;62466;47.566;7.786;2023-04-29T12:08:24;1.40;;;1.30;;
74108;SDS011;62466;47.566;7.786;2023-04-29T12:10:50;1.40;;;1.20;;
74108;SDS011;62466;47.566;7.786;2023-04-29T12:13:17;2.00;;;1.52;;
74108;SDS011;62466;47.566;7.786;2023-04-29T12:15:44;1.58;;;1.27;;
74108;SDS011;62466;47.566;7.786;2023-04-29T12:18:11;1.70;;;1.08;;
74108;SDS011;62466;47.566;7.786;2023-04-29T12:20:37;1.17;;;0.95;;
74108;SDS011;62466;47.566;7.786;2023-04-29T12:23:10;1.60;;;1.38;;
74108;SDS011;62466;47.566;7.786;2023-04-29T12:25:40;2.75;;;0.85;;
74108;SDS011;62466;47.566;7.786;2023-04-29T12:28:12;1.35;;;1.00;;
74108;SDS011;62466;47.566;7.786;2023-04-29T12:30:37;1.08;;;0.88;;
74108;SDS011;62466;47.566;7.786;2023-04-29T12:33:03;1.02;;;0.82;;
74108;SDS011;62466;47.566;7.786;2023-04-29T12:35:30;1.05;;;0.73;;
74108;SDS011;62466;47.566;7.786;2023-04-29T12:37:57;0.90;;;0.90;;
74108;SDS011;62466;47.566;7.786;2023-04-29T12:40:23;3.05;;;0.75;;
74108;SDS011;62466;47.566;7.786;2023-04-29T12:42:49;2.30;;;0.82;;
74108;SDS011;62466;47.566;7.786;2023-04-29T12:45:37;0.77;;;0.70;;
74108;SDS011;62466;47.566;7.786;2023-04-29T12:48:00;1.30;;;0.90;;
74108;SDS011;62466;47.566;7.786;2023-04-29T12:50:33;0.88;;;0.80;;
74108;SDS011;62466;47.566;7.786;2023-04-29T12:53:00;1.00;;;0.85;;
74108;SDS011;62466;47.566;7.786;2023-04-29T12:55:26;1.70;;;0.90;;
74108;SDS011;62466;47.566;7.786;2023-04-29T12:57:53;1.05;;;0.60;;
74108;SDS011;62466;47.566;7.786;2023-04-29T13:00:18;1.67;;;1.58;;
74108;SDS011;62466;47.566;7.786;2023-04-29T13:02:45;2.22;;;0.88;;
74108;SDS011;62466;47.566;7.786;2023-04-29T13:05:12;0.80;;;0.65;;
74108;SDS011;62466;47.566;7.786;2023-04-29T13:07:37;2.65;;;0.95;;
74108;SDS011;62466;47.566;7.786;2023-04-29T13:10:03;1.00;;;0.90;;
74108;SDS011;62466;47.566;7.786;2023-04-29T13:12:33;1.50;;;0.70;;
74108;SDS011;62466;47.566;7.786;2023-04-29T13:14:59;1.67;;;0.63;;
74108;SDS011;62466;47.566;7.786;2023-04-29T13:17:25;1.02;;;0.80;;
74108;SDS011;62466;47.566;7.786;2023-04-29T13:19:50;1.00;;;0.90;;
74108;SDS011;62466;47.566;7.786;2023-04-29T13:22:16;0.77;;;0.77;;
74108;SDS011;62466;47.566;7.786;2023-04-29T13:24:42;1.45;;;0.60;;
74108;SDS011;62466;47.566;7.786;2023-04-29T13:27:07;1.73;;;0.60;;
74108;SDS011;62466;47.566;7.786;2023-04-29T13:29:33;0.68;;;0.63;;
74108;SDS011;62466;47.566;7.786;2023-04-29T13:31:58;0.52;;;0.52;;
74108;SDS011;62466;47.566;7.786;2023-04-29T13:34:24;1.02;;;0.70;;
74108;SDS011;62466;47.566;7.786;2023-04-29T13:36:49;2.15;;;0.70;;
74108;SDS011;62466;47.566;7.786;2023-04-29T13:39:15;0.52;;;0.52;;
74108;SDS011;62466;47.566;7.786;2023-04-29T13:41:41;1.33;;;0.70;;
74108;SDS011;62466;47.566;7.786;2023-04-29T13:44:07;1.38;;;0.70;;
74108;SDS011;62466;47.566;7.786;2023-04-29T13:46:32;0.57;;;0.57;;
74108;SDS011;62466;47.566;7.786;2023-04-29T13:48:58;1.27;;;0.70;;
74108;SDS011;62466;47.566;7.786;2023-04-29T13:51:23;0.73;;;0.60;;
74108;SDS011;62466;47.566;7.786;2023-04-29T13:53:49;1.83;;;0.70;;
74108;SDS011;62466;47.566;7.786;2023-04-29T13:56:15;1.20;;;0.80;;
74108;SDS011;62466;47.566;7.786;2023-04-29T13:58:41;1.13;;;0.80;;
74108;SDS011;62466;47.566;7.786;2023-04-29T14:01:06;1.10;;;0.90;;
74108;SDS011;62466;47.566;7.786;2023-04-29T14:03:32;1.30;;;0.70;;
74108;SDS011;62466;47.566;7.786;2023-04-29T14:05:58;1.02;;;0.90;;
74108;SDS011;62466;47.566;7.786;2023-04-29T14:08:23;1.00;;;0.75;;
74108;SDS011;62466;47.566;7.786;2023-04-29T14:10:49;1.00;;;0.70;;
74108;SDS011;62466;47.566;7.786;2023-04-29T14:13:14;1.15;;;0.82;;
74108;SDS011;62466;47.566;7.786;2023-04-29T14:15:41;1.50;;;0.77;;
74108;SDS011;62466;47.566;7.786;2023-04-29T14:18:07;1.55;;;0.75;;
74108;SDS011;62466;47.566;7.786;2023-04-29T14:20:33;1.52;;;0.95;;
74108;SDS011;62466;47.566;7.786;2023-04-29T14:22:59;1.52;;;0.80;;
74108;SDS011;62466;47.566;7.786;2023-04-29T14:25:24;2.80;;;1.20;;
74108;SDS011;62466;47.566;7.786;2023-04-29T14:27:50;0.98;;;0.88;;
74108;SDS011;62466;47.566;7.786;2023-04-29T14:30:16;1.75;;;0.70;;
74108;SDS011;62466;47.566;7.786;2023-04-29T14:32:43;0.75;;;0.75;;
74108;SDS011;62466;47.566;7.786;2023-04-29T14:35:08;2.78;;;1.08;;
74108;SDS011;62466;47.566;7.786;2023-04-29T14:37:49;1.02;;;0.90;;
74108;SDS011;62466;47.566;7.786;2023-04-29T14:40:15;1.55;;;0.95;;
74108;SDS011;62466;47.566;7.786;2023-04-29T14:42:41;1.67;;;1.00;;
74108;SDS011;62466;47.566;7.786;2023-04-29T14:45:06;2.70;;;0.90;;
74108;SDS011;62466;47.566;7.786;2023-04-29T14:47:35;1.33;;;0.95;;
74108;SDS011;62466;47.566;7.786;2023-04-29T14:50:13;1.02;;;0.93;;
74108;SDS011;62466;47.566;7.786;2023-04-29T14:52:53;1.65;;;0.90;;
74108;SDS011;62466;47.566;7.786;2023-04-29T14:55:18;2.30;;;1.20;;
74108;SDS011;62466;47.566;7.786;2023-04-29T14:57:44;1.52;;;0.93;;
74108;SDS011;62466;47.566;7.786;2023-04-29T15:00:11;3.10;;;1.02;;
74108;SDS011;62466;47.566;7.786;2023-04-29T15:02:37;1.83;;;1.23;;
74108;SDS011;62466;47.566;7.786;2023-04-29T15:05:03;2.33;;;1.20;;
74108;SDS011;62466;47.566;7.786;2023-04-29T15:07:28;2.08;;;1.00;;
74108;SDS011;62466;47.566;7.786;2023-04-29T15:09:54;1.30;;;1.20;;
74108;SDS011;62466;47.566;7.786;2023-04-29T15:12:19;0.75;;;0.75;;
74108;SDS011;62466;47.566;7.786;2023-04-29T15:14:46;1.25;;;1.15;;
74108;SDS011;62466;47.566;7.786;2023-04-29T15:17:12;2.00;;;1.20;;
74108;SDS011;62466;47.566;7.786;2023-04-29T15:19:37;1.27;;;1.00;;
74108;SDS011;62466;47.566;7.786;2023-04-29T15:22:02;1.67;;;1.00;;
74108;SDS011;62466;47.566;7.786;2023-04-29T15:24:28;6.18;;;1.10;;